sensor_id;sensor_type;location;lat;lon;timestamp;P1;durP1;ratioP1;P2;durP2;ratioP2
75930;SDS011;64609;47.052;15.462;2023-06-22T00:00:46;16.85;;;8.88;;
75930;SDS011;64609;47.052;15.462;2023-06-22T00:03:12;26.25;;;9.40;;
75930;SDS011;64609;47.052;15.462;2023-06-22T00:05:37;23.10;;;8.90;;
75930;SDS011;64609;47.052;15.462;2023-06-22T00:08:03;22.23;;;9.85;;
75930;SDS011;64609;47.052;15.462;2023-06-22T00:10:32;21.40;;;9.30;;
75930;SDS011;64609;47.052;15.462;2023-06-22T00:12:58;21.52;;;9.48;;
75930;SDS011;64609;47.052;15.462;2023-06-22T00:15:23;23.55;;;9.73;;
75930;SDS011;64609;47.052;15.462;2023-06-22T00:17:49;20.23;;;9.10;;
75930;SDS011;64609;47.052;15.462;2023-06-22T00:20:15;25.05;;;9.75;;
75930;SDS011;64609;47.052;15.462;2023-06-22T00:22:43;20.23;;;10.07;;
75930;SDS011;64609;47.052;15.462;2023-06-22T00:25:09;19.67;;;9.23;;
75930;SDS011;64609;47.052;15.462;2023-06-22T00:27:35;23.88;;;9.50;;
75930;SDS011;64609;47.052;15.462;2023-06-22T00:30:01;27.23;;;9.23;;
75930;SDS011;64609;47.052;15.462;2023-06-22T00:32:28;19.73;;;9.60;;
75930;SDS011;64609;47.052;15.462;2023-06-22T00:34:53;21.50;;;9.60;;
75930;SDS011;64609;47.052;15.462;2023-06-22T00:37:19;18.27;;;8.93;;
75930;SDS011;64609;47.052;15.462;2023-06-22T00:39:47;22.38;;;9.93;;
75930;SDS011;64609;47.052;15.462;2023-06-22T00:42:13;21.27;;;9.30;;
75930;SDS011;64609;47.052;15.462;2023-06-22T00:44:39;16.73;;;9.07;;
75930;SDS011;64609;47.052;15.462;2023-06-22T00:47:05;23.38;;;9.23;;
75930;SDS011;64609;47.052;15.462;2023-06-22T00:49:31;18.23;;;9.13;;
75930;SDS011;64609;47.052;15.462;2023-06-22T00:51:57;27.23;;;9.73;;
75930;SDS011;64609;47.052;15.462;2023-06-22T00:54:23;21.10;;;10.20;;
75930;SDS011;64609;47.052;15.462;2023-06-22T00:56:53;22.10;;;8.90;;
75930;SDS011;64609;47.052;15.462;2023-06-22T00:59:23;23.60;;;10.23;;
75930;SDS011;64609;47.052;15.462;2023-06-22T01:01:49;25.80;;;10.07;;
75930;SDS011;64609;47.052;15.462;2023-06-22T01:04:15;23.20;;;10.23;;
75930;SDS011;64609;47.052;15.462;2023-06-22T01:06:42;19.30;;;8.88;;
75930;SDS011;64609;47.052;15.462;2023-06-22T01:09:18;17.42;;;8.43;;
75930;SDS011;64609;47.052;15.462;2023-06-22T01:11:54;22.60;;;9.35;;
75930;SDS011;64609;47.052;15.462;2023-06-22T01:14:30;23.38;;;9.15;;
75930;SDS011;64609;47.052;15.462;2023-06-22T01:16:58;19.48;;;9.45;;
75930;SDS011;64609;47.052;15.462;2023-06-22T01:22:06;21.08;;;9.75;;
75930;SDS011;64609;47.052;15.462;2023-06-22T01:30:31;18.70;;;10.10;;
75930;SDS011;64609;47.052;15.462;2023-06-22T01:32:59;18.52;;;9.70;;
75930;SDS011;64609;47.052;15.462;2023-06-22T01:35:28;18.13;;;9.40;;
75930;SDS011;64609;47.052;15.462;2023-06-22T01:37:54;21.33;;;9.35;;
75930;SDS011;64609;47.052;15.462;2023-06-22T01:40:20;21.77;;;9.13;;
75930;SDS011;64609;47.052;15.462;2023-06-22T01:42:46;21.70;;;9.68;;
75930;SDS011;64609;47.052;15.462;2023-06-22T01:45:13;20.58;;;9.43;;
75930;SDS011;64609;47.052;15.462;2023-06-22T01:47:39;17.50;;;9.88;;
75930;SDS011;64609;47.052;15.462;2023-06-22T01:50:06;23.67;;;10.65;;
75930;SDS011;64609;47.052;15.462;2023-06-22T01:52:32;25.92;;;10.07;;
75930;SDS011;64609;47.052;15.462;2023-06-22T01:54:59;21.63;;;9.30;;
75930;SDS011;64609;47.052;15.462;2023-06-22T01:57:25;19.90;;;9.68;;
75930;SDS011;64609;47.052;15.462;2023-06-22T02:02:31;19.90;;;9.35;;
75930;SDS011;64609;47.052;15.462;2023-06-22T02:05:03;21.98;;;10.18;;
75930;SDS011;64609;47.052;15.462;2023-06-22T02:07:33;22.90;;;9.30;;
75930;SDS011;64609;47.052;15.462;2023-06-22T02:10:02;18.23;;;9.27;;
75930;SDS011;64609;47.052;15.462;2023-06-22T02:12:31;18.03;;;9.80;;
75930;SDS011;64609;47.052;15.462;2023-06-22T02:14:59;19.20;;;9.65;;
75930;SDS011;64609;47.052;15.462;2023-06-22T02:17:26;19.35;;;9.73;;
75930;SDS011;64609;47.052;15.462;2023-06-22T02:19:51;24.67;;;10.00;;
75930;SDS011;64609;47.052;15.462;2023-06-22T02:22:17;21.17;;;9.57;;
75930;SDS011;64609;47.052;15.462;2023-06-22T02:24:43;20.85;;;9.77;;
75930;SDS011;64609;47.052;15.462;2023-06-22T02:27:09;20.48;;;10.07;;
75930;SDS011;64609;47.052;15.462;2023-06-22T02:29:35;19.45;;;9.27;;
75930;SDS011;64609;47.052;15.462;2023-06-22T02:32:01;25.75;;;10.30;;
75930;SDS011;64609;47.052;15.462;2023-06-22T02:34:27;22.55;;;10.23;;
75930;SDS011;64609;47.052;15.462;2023-06-22T02:36:53;19.92;;;9.95;;
75930;SDS011;64609;47.052;15.462;2023-06-22T02:39:22;19.50;;;9.80;;
75930;SDS011;64609;47.052;15.462;2023-06-22T02:41:49;17.08;;;9.25;;
75930;SDS011;64609;47.052;15.462;2023-06-22T02:44:15;25.55;;;10.98;;
75930;SDS011;64609;47.052;15.462;2023-06-22T02:46:41;17.67;;;9.77;;
75930;SDS011;64609;47.052;15.462;2023-06-22T02:49:07;20.52;;;10.13;;
75930;SDS011;64609;47.052;15.462;2023-06-22T02:51:33;25.20;;;10.77;;
75930;SDS011;64609;47.052;15.462;2023-06-22T02:53:59;22.58;;;11.07;;
75930;SDS011;64609;47.052;15.462;2023-06-22T02:56:25;29.35;;;10.57;;
75930;SDS011;64609;47.052;15.462;2023-06-22T02:58:51;15.95;;;9.70;;
75930;SDS011;64609;47.052;15.462;2023-06-22T03:01:17;23.20;;;9.65;;
75930;SDS011;64609;47.052;15.462;2023-06-22T03:03:48;21.85;;;10.30;;
75930;SDS011;64609;47.052;15.462;2023-06-22T03:06:13;18.75;;;10.07;;
75930;SDS011;64609;47.052;15.462;2023-06-22T03:08:39;24.48;;;10.85;;
75930;SDS011;64609;47.052;15.462;2023-06-22T03:11:06;24.67;;;11.43;;
75930;SDS011;64609;47.052;15.462;2023-06-22T03:13:32;20.75;;;10.40;;
75930;SDS011;64609;47.052;15.462;2023-06-22T03:15:58;27.30;;;11.23;;
75930;SDS011;64609;47.052;15.462;2023-06-22T03:18:24;26.50;;;11.43;;
75930;SDS011;64609;47.052;15.462;2023-06-22T03:20:49;26.45;;;12.20;;
75930;SDS011;64609;47.052;15.462;2023-06-22T03:23:15;21.73;;;12.27;;
75930;SDS011;64609;47.052;15.462;2023-06-22T03:25:41;20.02;;;11.32;;
75930;SDS011;64609;47.052;15.462;2023-06-22T03:28:09;19.08;;;11.13;;
75930;SDS011;64609;47.052;15.462;2023-06-22T03:30:35;21.65;;;11.25;;
75930;SDS011;64609;47.052;15.462;2023-06-22T03:33:01;21.27;;;11.30;;
75930;SDS011;64609;47.052;15.462;2023-06-22T03:35:26;24.08;;;11.15;;
75930;SDS011;64609;47.052;15.462;2023-06-22T03:37:52;22.73;;;11.73;;
75930;SDS011;64609;47.052;15.462;2023-06-22T03:40:18;24.73;;;11.82;;
75930;SDS011;64609;47.052;15.462;2023-06-22T03:42:45;24.67;;;11.43;;
75930;SDS011;64609;47.052;15.462;2023-06-22T03:45:11;24.55;;;11.20;;
75930;SDS011;64609;47.052;15.462;2023-06-22T03:47:36;21.55;;;11.30;;
75930;SDS011;64609;47.052;15.462;2023-06-22T03:50:02;20.15;;;10.90;;
75930;SDS011;64609;47.052;15.462;2023-06-22T03:52:31;21.83;;;11.38;;
75930;SDS011;64609;47.052;15.462;2023-06-22T03:54:57;24.60;;;12.55;;
75930;SDS011;64609;47.052;15.462;2023-06-22T03:57:23;20.50;;;11.05;;
75930;SDS011;64609;47.052;15.462;2023-06-22T03:59:49;25.75;;;12.25;;
75930;SDS011;64609;47.052;15.462;2023-06-22T04:02:15;26.58;;;10.85;;
75930;SDS011;64609;47.052;15.462;2023-06-22T04:04:40;20.15;;;10.88;;
75930;SDS011;64609;47.052;15.462;2023-06-22T04:07:06;22.88;;;10.90;;
75930;SDS011;64609;47.052;15.462;2023-06-22T04:09:31;23.73;;;11.50;;
75930;SDS011;64609;47.052;15.462;2023-06-22T04:11:57;24.02;;;11.30;;
75930;SDS011;64609;47.052;15.462;2023-06-22T04:14:23;23.30;;;12.43;;
75930;SDS011;64609;47.052;15.462;2023-06-22T04:16:49;23.92;;;11.18;;
75930;SDS011;64609;47.052;15.462;2023-06-22T04:19:14;24.75;;;12.20;;
75930;SDS011;64609;47.052;15.462;2023-06-22T04:21:41;24.92;;;11.25;;
75930;SDS011;64609;47.052;15.462;2023-06-22T04:24:07;23.88;;;11.57;;
75930;SDS011;64609;47.052;15.462;2023-06-22T04:26:33;23.95;;;11.63;;
75930;SDS011;64609;47.052;15.462;2023-06-22T04:29:02;24.42;;;12.10;;
75930;SDS011;64609;47.052;15.462;2023-06-22T04:31:30;19.90;;;12.20;;
75930;SDS011;64609;47.052;15.462;2023-06-22T04:34:02;23.33;;;11.60;;
75930;SDS011;64609;47.052;15.462;2023-06-22T04:36:35;22.63;;;12.18;;
75930;SDS011;64609;47.052;15.462;2023-06-22T04:39:06;20.63;;;12.00;;
75930;SDS011;64609;47.052;15.462;2023-06-22T04:41:39;23.92;;;13.43;;
75930;SDS011;64609;47.052;15.462;2023-06-22T04:44:09;25.88;;;13.15;;
75930;SDS011;64609;47.052;15.462;2023-06-22T04:46:35;23.33;;;12.27;;
75930;SDS011;64609;47.052;15.462;2023-06-22T04:49:06;27.60;;;13.50;;
75930;SDS011;64609;47.052;15.462;2023-06-22T04:51:36;26.05;;;12.82;;
75930;SDS011;64609;47.052;15.462;2023-06-22T04:54:06;24.42;;;13.02;;
75930;SDS011;64609;47.052;15.462;2023-06-22T04:56:32;22.55;;;12.38;;
75930;SDS011;64609;47.052;15.462;2023-06-22T04:58:58;21.95;;;12.77;;
75930;SDS011;64609;47.052;15.462;2023-06-22T05:01:24;23.73;;;12.32;;
75930;SDS011;64609;47.052;15.462;2023-06-22T05:03:50;22.38;;;12.45;;
75930;SDS011;64609;47.052;15.462;2023-06-22T05:06:20;24.08;;;13.10;;
75930;SDS011;64609;47.052;15.462;2023-06-22T05:08:50;22.17;;;12.88;;
75930;SDS011;64609;47.052;15.462;2023-06-22T05:11:18;29.30;;;12.95;;
75930;SDS011;64609;47.052;15.462;2023-06-22T05:13:44;19.13;;;11.50;;
75930;SDS011;64609;47.052;15.462;2023-06-22T05:16:09;22.52;;;12.93;;
75930;SDS011;64609;47.052;15.462;2023-06-22T05:18:35;23.63;;;12.80;;
75930;SDS011;64609;47.052;15.462;2023-06-22T05:21:01;25.77;;;12.38;;
75930;SDS011;64609;47.052;15.462;2023-06-22T05:23:28;22.85;;;11.75;;
75930;SDS011;64609;47.052;15.462;2023-06-22T05:25:54;23.00;;;12.93;;
75930;SDS011;64609;47.052;15.462;2023-06-22T05:28:22;23.33;;;12.82;;
75930;SDS011;64609;47.052;15.462;2023-06-22T05:30:49;24.27;;;12.60;;
75930;SDS011;64609;47.052;15.462;2023-06-22T05:33:15;22.70;;;12.73;;
75930;SDS011;64609;47.052;15.462;2023-06-22T05:35:40;26.15;;;12.63;;
75930;SDS011;64609;47.052;15.462;2023-06-22T05:38:06;31.95;;;13.40;;
75930;SDS011;64609;47.052;15.462;2023-06-22T05:40:32;23.00;;;12.70;;
75930;SDS011;64609;47.052;15.462;2023-06-22T05:42:58;22.55;;;12.23;;
75930;SDS011;64609;47.052;15.462;2023-06-22T05:45:25;27.58;;;11.85;;
75930;SDS011;64609;47.052;15.462;2023-06-22T05:47:51;27.50;;;12.90;;
75930;SDS011;64609;47.052;15.462;2023-06-22T05:50:16;28.77;;;12.88;;
75930;SDS011;64609;47.052;15.462;2023-06-22T05:52:42;20.95;;;11.48;;
75930;SDS011;64609;47.052;15.462;2023-06-22T05:55:08;29.83;;;12.90;;
75930;SDS011;64609;47.052;15.462;2023-06-22T05:57:34;25.73;;;12.35;;
75930;SDS011;64609;47.052;15.462;2023-06-22T05:59:59;25.00;;;12.20;;
75930;SDS011;64609;47.052;15.462;2023-06-22T06:02:25;21.30;;;12.07;;
75930;SDS011;64609;47.052;15.462;2023-06-22T06:04:50;20.70;;;11.65;;
75930;SDS011;64609;47.052;15.462;2023-06-22T06:07:17;32.75;;;12.82;;
75930;SDS011;64609;47.052;15.462;2023-06-22T06:09:43;26.05;;;11.88;;
75930;SDS011;64609;47.052;15.462;2023-06-22T06:12:09;25.42;;;12.43;;
75930;SDS011;64609;47.052;15.462;2023-06-22T06:14:34;26.40;;;12.73;;
75930;SDS011;64609;47.052;15.462;2023-06-22T06:17:00;25.08;;;12.70;;
75930;SDS011;64609;47.052;15.462;2023-06-22T06:19:25;22.25;;;12.20;;
75930;SDS011;64609;47.052;15.462;2023-06-22T06:21:51;32.20;;;13.45;;
75930;SDS011;64609;47.052;15.462;2023-06-22T06:24:17;24.80;;;12.20;;
75930;SDS011;64609;47.052;15.462;2023-06-22T06:26:42;26.23;;;12.00;;
75930;SDS011;64609;47.052;15.462;2023-06-22T06:29:08;22.02;;;12.05;;
75930;SDS011;64609;47.052;15.462;2023-06-22T06:31:33;30.33;;;12.32;;
75930;SDS011;64609;47.052;15.462;2023-06-22T06:33:59;25.95;;;12.10;;
75930;SDS011;64609;47.052;15.462;2023-06-22T06:36:25;23.90;;;11.25;;
75930;SDS011;64609;47.052;15.462;2023-06-22T06:38:50;26.67;;;12.45;;
75930;SDS011;64609;47.052;15.462;2023-06-22T06:41:16;29.23;;;11.70;;
75930;SDS011;64609;47.052;15.462;2023-06-22T06:43:42;24.35;;;12.15;;
75930;SDS011;64609;47.052;15.462;2023-06-22T06:46:08;24.52;;;11.40;;
75930;SDS011;64609;47.052;15.462;2023-06-22T06:48:34;21.13;;;11.10;;
75930;SDS011;64609;47.052;15.462;2023-06-22T06:51:00;21.15;;;11.23;;
75930;SDS011;64609;47.052;15.462;2023-06-22T06:53:26;18.13;;;11.20;;
75930;SDS011;64609;47.052;15.462;2023-06-22T06:55:52;71.97;;;14.52;;
75930;SDS011;64609;47.052;15.462;2023-06-22T06:58:17;61.50;;;14.25;;
75930;SDS011;64609;47.052;15.462;2023-06-22T07:00:43;31.08;;;11.27;;
75930;SDS011;64609;47.052;15.462;2023-06-22T07:03:09;34.80;;;12.48;;
75930;SDS011;64609;47.052;15.462;2023-06-22T07:05:34;34.88;;;10.85;;
75930;SDS011;64609;47.052;15.462;2023-06-22T07:08:00;54.60;;;12.63;;
75930;SDS011;64609;47.052;15.462;2023-06-22T07:10:28;39.22;;;11.95;;
75930;SDS011;64609;47.052;15.462;2023-06-22T07:12:54;23.27;;;10.93;;
75930;SDS011;64609;47.052;15.462;2023-06-22T07:15:20;15.95;;;9.80;;
75930;SDS011;64609;47.052;15.462;2023-06-22T07:17:45;24.70;;;10.65;;
75930;SDS011;64609;47.052;15.462;2023-06-22T07:20:11;25.20;;;10.25;;
75930;SDS011;64609;47.052;15.462;2023-06-22T07:22:40;21.70;;;9.43;;
75930;SDS011;64609;47.052;15.462;2023-06-22T07:25:07;21.38;;;9.88;;
75930;SDS011;64609;47.052;15.462;2023-06-22T07:27:39;30.40;;;10.40;;
75930;SDS011;64609;47.052;15.462;2023-06-22T07:30:09;18.40;;;10.13;;
75930;SDS011;64609;47.052;15.462;2023-06-22T07:32:35;26.85;;;8.90;;
75930;SDS011;64609;47.052;15.462;2023-06-22T07:35:01;23.98;;;9.73;;
75930;SDS011;64609;47.052;15.462;2023-06-22T07:37:28;18.73;;;9.60;;
75930;SDS011;64609;47.052;15.462;2023-06-22T07:39:54;21.75;;;9.40;;
75930;SDS011;64609;47.052;15.462;2023-06-22T07:42:26;17.15;;;9.23;;
75930;SDS011;64609;47.052;15.462;2023-06-22T07:44:52;20.40;;;9.23;;
75930;SDS011;64609;47.052;15.462;2023-06-22T07:47:18;25.25;;;9.43;;
75930;SDS011;64609;47.052;15.462;2023-06-22T07:49:44;23.88;;;9.15;;
75930;SDS011;64609;47.052;15.462;2023-06-22T07:52:13;17.25;;;9.00;;
75930;SDS011;64609;47.052;15.462;2023-06-22T07:54:39;28.38;;;10.23;;
75930;SDS011;64609;47.052;15.462;2023-06-22T07:57:04;19.23;;;9.75;;
75930;SDS011;64609;47.052;15.462;2023-06-22T07:59:30;17.17;;;9.18;;
75930;SDS011;64609;47.052;15.462;2023-06-22T08:01:56;14.98;;;9.02;;
75930;SDS011;64609;47.052;15.462;2023-06-22T08:04:21;23.80;;;9.18;;
75930;SDS011;64609;47.052;15.462;2023-06-22T08:06:47;21.88;;;9.82;;
75930;SDS011;64609;47.052;15.462;2023-06-22T08:09:14;21.45;;;9.95;;
75930;SDS011;64609;47.052;15.462;2023-06-22T08:11:40;31.35;;;10.32;;
75930;SDS011;64609;47.052;15.462;2023-06-22T08:14:05;17.75;;;9.90;;
75930;SDS011;64609;47.052;15.462;2023-06-22T08:16:31;22.20;;;10.50;;
75930;SDS011;64609;47.052;15.462;2023-06-22T08:18:56;18.42;;;8.65;;
75930;SDS011;64609;47.052;15.462;2023-06-22T08:21:22;22.75;;;10.00;;
75930;SDS011;64609;47.052;15.462;2023-06-22T08:23:48;19.48;;;9.80;;
75930;SDS011;64609;47.052;15.462;2023-06-22T08:26:14;21.90;;;10.07;;
75930;SDS011;64609;47.052;15.462;2023-06-22T08:28:40;24.60;;;9.25;;
75930;SDS011;64609;47.052;15.462;2023-06-22T08:31:06;22.75;;;9.32;;
75930;SDS011;64609;47.052;15.462;2023-06-22T08:33:31;25.20;;;9.52;;
75930;SDS011;64609;47.052;15.462;2023-06-22T08:35:58;20.02;;;9.10;;
75930;SDS011;64609;47.052;15.462;2023-06-22T08:38:24;21.30;;;9.73;;
75930;SDS011;64609;47.052;15.462;2023-06-22T08:40:50;21.48;;;8.98;;
75930;SDS011;64609;47.052;15.462;2023-06-22T08:43:15;15.48;;;8.98;;
75930;SDS011;64609;47.052;15.462;2023-06-22T08:45:41;19.23;;;8.45;;
75930;SDS011;64609;47.052;15.462;2023-06-22T08:48:07;22.08;;;8.90;;
75930;SDS011;64609;47.052;15.462;2023-06-22T08:50:32;16.30;;;8.52;;
75930;SDS011;64609;47.052;15.462;2023-06-22T08:52:58;17.50;;;8.57;;
75930;SDS011;64609;47.052;15.462;2023-06-22T08:55:23;18.40;;;8.32;;
75930;SDS011;64609;47.052;15.462;2023-06-22T08:57:49;19.25;;;8.32;;
75930;SDS011;64609;47.052;15.462;2023-06-22T09:00:16;19.20;;;8.18;;
75930;SDS011;64609;47.052;15.462;2023-06-22T09:02:42;20.67;;;9.20;;
75930;SDS011;64609;47.052;15.462;2023-06-22T09:05:09;20.10;;;8.15;;
75930;SDS011;64609;47.052;15.462;2023-06-22T09:07:34;17.15;;;8.80;;
75930;SDS011;64609;47.052;15.462;2023-06-22T09:10:00;18.58;;;8.68;;
75930;SDS011;64609;47.052;15.462;2023-06-22T09:12:26;24.75;;;9.18;;
75930;SDS011;64609;47.052;15.462;2023-06-22T09:14:52;17.17;;;9.15;;
75930;SDS011;64609;47.052;15.462;2023-06-22T09:17:18;21.65;;;9.13;;
75930;SDS011;64609;47.052;15.462;2023-06-22T09:19:44;17.02;;;8.80;;
75930;SDS011;64609;47.052;15.462;2023-06-22T09:22:10;20.52;;;8.85;;
75930;SDS011;64609;47.052;15.462;2023-06-22T09:24:35;25.05;;;8.73;;
75930;SDS011;64609;47.052;15.462;2023-06-22T09:27:01;18.00;;;8.63;;
75930;SDS011;64609;47.052;15.462;2023-06-22T09:29:27;30.30;;;10.30;;
75930;SDS011;64609;47.052;15.462;2023-06-22T09:31:52;18.88;;;9.15;;
75930;SDS011;64609;47.052;15.462;2023-06-22T09:34:21;19.67;;;8.32;;
75930;SDS011;64609;47.052;15.462;2023-06-22T09:36:46;22.88;;;9.07;;
75930;SDS011;64609;47.052;15.462;2023-06-22T09:39:12;20.50;;;8.98;;
75930;SDS011;64609;47.052;15.462;2023-06-22T09:41:38;20.55;;;9.90;;
75930;SDS011;64609;47.052;15.462;2023-06-22T09:44:03;20.00;;;8.45;;
75930;SDS011;64609;47.052;15.462;2023-06-22T09:46:29;22.98;;;9.43;;
75930;SDS011;64609;47.052;15.462;2023-06-22T09:48:55;19.27;;;9.02;;
75930;SDS011;64609;47.052;15.462;2023-06-22T09:51:20;20.48;;;9.00;;
75930;SDS011;64609;47.052;15.462;2023-06-22T09:53:48;16.20;;;8.52;;
75930;SDS011;64609;47.052;15.462;2023-06-22T09:56:14;22.77;;;8.43;;
75930;SDS011;64609;47.052;15.462;2023-06-22T09:58:41;17.77;;;9.02;;
75930;SDS011;64609;47.052;15.462;2023-06-22T10:01:08;19.25;;;8.05;;
75930;SDS011;64609;47.052;15.462;2023-06-22T10:03:35;18.58;;;8.43;;
75930;SDS011;64609;47.052;15.462;2023-06-22T10:06:01;22.27;;;9.10;;
75930;SDS011;64609;47.052;15.462;2023-06-22T10:08:26;24.48;;;9.02;;
75930;SDS011;64609;47.052;15.462;2023-06-22T10:10:52;23.05;;;8.85;;
75930;SDS011;64609;47.052;15.462;2023-06-22T10:13:17;17.38;;;8.23;;
75930;SDS011;64609;47.052;15.462;2023-06-22T10:15:44;23.67;;;8.82;;
75930;SDS011;64609;47.052;15.462;2023-06-22T10:18:14;20.52;;;8.73;;
75930;SDS011;64609;47.052;15.462;2023-06-22T10:20:41;23.17;;;8.60;;
75930;SDS011;64609;47.052;15.462;2023-06-22T10:23:07;18.67;;;8.73;;
75930;SDS011;64609;47.052;15.462;2023-06-22T10:25:32;18.92;;;8.93;;
75930;SDS011;64609;47.052;15.462;2023-06-22T10:27:58;22.92;;;8.45;;
75930;SDS011;64609;47.052;15.462;2023-06-22T10:30:23;16.75;;;8.98;;
75930;SDS011;64609;47.052;15.462;2023-06-22T10:32:49;19.17;;;9.00;;
75930;SDS011;64609;47.052;15.462;2023-06-22T10:35:15;17.27;;;8.45;;
75930;SDS011;64609;47.052;15.462;2023-06-22T10:37:42;20.40;;;9.75;;
75930;SDS011;64609;47.052;15.462;2023-06-22T10:40:08;22.13;;;9.35;;
75930;SDS011;64609;47.052;15.462;2023-06-22T10:42:35;20.17;;;9.45;;
75930;SDS011;64609;47.052;15.462;2023-06-22T10:45:00;24.15;;;10.00;;
75930;SDS011;64609;47.052;15.462;2023-06-22T10:47:26;16.40;;;8.85;;
75930;SDS011;64609;47.052;15.462;2023-06-22T10:49:52;21.15;;;8.93;;
75930;SDS011;64609;47.052;15.462;2023-06-22T10:52:17;22.27;;;8.63;;
75930;SDS011;64609;47.052;15.462;2023-06-22T10:54:43;23.27;;;9.98;;
75930;SDS011;64609;47.052;15.462;2023-06-22T10:57:08;22.95;;;9.50;;
75930;SDS011;64609;47.052;15.462;2023-06-22T10:59:34;18.73;;;8.80;;
75930;SDS011;64609;47.052;15.462;2023-06-22T11:02:00;27.10;;;9.57;;
75930;SDS011;64609;47.052;15.462;2023-06-22T11:04:25;22.25;;;9.32;;
75930;SDS011;64609;47.052;15.462;2023-06-22T11:06:51;19.48;;;9.07;;
75930;SDS011;64609;47.052;15.462;2023-06-22T11:09:17;16.95;;;9.18;;
75930;SDS011;64609;47.052;15.462;2023-06-22T11:11:49;19.90;;;9.30;;
75930;SDS011;64609;47.052;15.462;2023-06-22T11:14:18;20.85;;;8.77;;
75930;SDS011;64609;47.052;15.462;2023-06-22T11:16:44;19.25;;;9.60;;
75930;SDS011;64609;47.052;15.462;2023-06-22T11:19:11;20.05;;;9.15;;
75930;SDS011;64609;47.052;15.462;2023-06-22T11:21:37;21.95;;;8.50;;
75930;SDS011;64609;47.052;15.462;2023-06-22T11:24:02;19.33;;;8.93;;
75930;SDS011;64609;47.052;15.462;2023-06-22T11:26:30;19.65;;;9.40;;
75930;SDS011;64609;47.052;15.462;2023-06-22T11:28:57;22.17;;;9.13;;
75930;SDS011;64609;47.052;15.462;2023-06-22T11:31:23;20.27;;;8.40;;
75930;SDS011;64609;47.052;15.462;2023-06-22T11:33:49;18.35;;;9.00;;
75930;SDS011;64609;47.052;15.462;2023-06-22T11:36:14;24.83;;;9.80;;
75930;SDS011;64609;47.052;15.462;2023-06-22T11:38:41;19.70;;;9.40;;
75930;SDS011;64609;47.052;15.462;2023-06-22T11:41:07;28.30;;;9.38;;
75930;SDS011;64609;47.052;15.462;2023-06-22T11:43:33;18.25;;;10.02;;
75930;SDS011;64609;47.052;15.462;2023-06-22T11:45:59;25.10;;;9.32;;
75930;SDS011;64609;47.052;15.462;2023-06-22T11:48:29;21.50;;;9.98;;
75930;SDS011;64609;47.052;15.462;2023-06-22T11:50:54;24.13;;;9.20;;
75930;SDS011;64609;47.052;15.462;2023-06-22T11:53:21;17.83;;;9.93;;
75930;SDS011;64609;47.052;15.462;2023-06-22T11:55:47;19.73;;;9.52;;
75930;SDS011;64609;47.052;15.462;2023-06-22T11:58:14;18.08;;;8.85;;
75930;SDS011;64609;47.052;15.462;2023-06-22T12:00:39;19.80;;;9.82;;
75930;SDS011;64609;47.052;15.462;2023-06-22T12:03:05;19.83;;;9.50;;
75930;SDS011;64609;47.052;15.462;2023-06-22T12:05:31;23.73;;;9.18;;
75930;SDS011;64609;47.052;15.462;2023-06-22T12:07:56;17.90;;;8.80;;
75930;SDS011;64609;47.052;15.462;2023-06-22T12:10:22;17.15;;;8.98;;
75930;SDS011;64609;47.052;15.462;2023-06-22T12:12:48;21.83;;;9.05;;
75930;SDS011;64609;47.052;15.462;2023-06-22T12:15:14;18.65;;;9.25;;
75930;SDS011;64609;47.052;15.462;2023-06-22T12:17:40;20.73;;;9.25;;
75930;SDS011;64609;47.052;15.462;2023-06-22T12:20:06;24.25;;;9.80;;
75930;SDS011;64609;47.052;15.462;2023-06-22T12:22:32;24.33;;;9.52;;
75930;SDS011;64609;47.052;15.462;2023-06-22T12:24:59;19.63;;;9.05;;
75930;SDS011;64609;47.052;15.462;2023-06-22T12:27:25;17.55;;;8.85;;
75930;SDS011;64609;47.052;15.462;2023-06-22T12:29:50;15.63;;;8.63;;
75930;SDS011;64609;47.052;15.462;2023-06-22T12:32:16;24.85;;;9.27;;
75930;SDS011;64609;47.052;15.462;2023-06-22T12:34:42;26.33;;;10.02;;
75930;SDS011;64609;47.052;15.462;2023-06-22T12:37:09;18.65;;;9.77;;
75930;SDS011;64609;47.052;15.462;2023-06-22T12:39:35;20.40;;;8.77;;
75930;SDS011;64609;47.052;15.462;2023-06-22T12:42:00;29.77;;;9.95;;
75930;SDS011;64609;47.052;15.462;2023-06-22T12:44:26;26.02;;;9.25;;
75930;SDS011;64609;47.052;15.462;2023-06-22T12:46:52;20.63;;;9.23;;
75930;SDS011;64609;47.052;15.462;2023-06-22T12:49:17;22.95;;;9.65;;
75930;SDS011;64609;47.052;15.462;2023-06-22T12:51:43;24.98;;;9.38;;
75930;SDS011;64609;47.052;15.462;2023-06-22T12:54:10;19.63;;;9.23;;
75930;SDS011;64609;47.052;15.462;2023-06-22T12:56:36;22.25;;;9.20;;
75930;SDS011;64609;47.052;15.462;2023-06-22T12:59:03;19.67;;;8.88;;
75930;SDS011;64609;47.052;15.462;2023-06-22T13:01:30;23.52;;;9.25;;
75930;SDS011;64609;47.052;15.462;2023-06-22T13:03:57;18.73;;;9.32;;
75930;SDS011;64609;47.052;15.462;2023-06-22T13:06:25;20.52;;;9.05;;
75930;SDS011;64609;47.052;15.462;2023-06-22T13:08:51;23.40;;;9.50;;
75930;SDS011;64609;47.052;15.462;2023-06-22T13:11:17;24.33;;;9.48;;
75930;SDS011;64609;47.052;15.462;2023-06-22T13:13:43;21.92;;;8.77;;
75930;SDS011;64609;47.052;15.462;2023-06-22T13:16:09;21.38;;;9.20;;
75930;SDS011;64609;47.052;15.462;2023-06-22T13:18:35;29.25;;;9.07;;
75930;SDS011;64609;47.052;15.462;2023-06-22T13:21:04;26.75;;;10.65;;
75930;SDS011;64609;47.052;15.462;2023-06-22T13:23:30;20.25;;;9.40;;
75930;SDS011;64609;47.052;15.462;2023-06-22T13:25:57;21.00;;;9.13;;
75930;SDS011;64609;47.052;15.462;2023-06-22T13:28:23;21.77;;;9.48;;
75930;SDS011;64609;47.052;15.462;2023-06-22T13:30:48;28.70;;;9.18;;
75930;SDS011;64609;47.052;15.462;2023-06-22T13:33:14;19.35;;;9.00;;
75930;SDS011;64609;47.052;15.462;2023-06-22T13:35:40;24.75;;;9.80;;
75930;SDS011;64609;47.052;15.462;2023-06-22T13:38:07;20.60;;;9.93;;
75930;SDS011;64609;47.052;15.462;2023-06-22T13:40:34;28.30;;;10.18;;
75930;SDS011;64609;47.052;15.462;2023-06-22T13:43:00;23.42;;;10.30;;
75930;SDS011;64609;47.052;15.462;2023-06-22T13:45:26;22.77;;;10.15;;
75930;SDS011;64609;47.052;15.462;2023-06-22T13:47:52;23.73;;;9.80;;
75930;SDS011;64609;47.052;15.462;2023-06-22T13:50:18;19.25;;;8.95;;
75930;SDS011;64609;47.052;15.462;2023-06-22T13:52:43;25.73;;;9.75;;
75930;SDS011;64609;47.052;15.462;2023-06-22T13:55:09;24.83;;;10.30;;
75930;SDS011;64609;47.052;15.462;2023-06-22T13:57:35;21.60;;;9.23;;
75930;SDS011;64609;47.052;15.462;2023-06-22T14:00:02;27.65;;;9.70;;
75930;SDS011;64609;47.052;15.462;2023-06-22T14:02:30;25.80;;;10.13;;
75930;SDS011;64609;47.052;15.462;2023-06-22T14:04:55;24.30;;;9.55;;
75930;SDS011;64609;47.052;15.462;2023-06-22T14:07:21;27.70;;;10.18;;
75930;SDS011;64609;47.052;15.462;2023-06-22T14:09:47;17.80;;;9.30;;
75930;SDS011;64609;47.052;15.462;2023-06-22T14:12:13;22.20;;;10.00;;
75930;SDS011;64609;47.052;15.462;2023-06-22T14:14:38;23.80;;;9.23;;
75930;SDS011;64609;47.052;15.462;2023-06-22T14:17:04;27.35;;;10.15;;
75930;SDS011;64609;47.052;15.462;2023-06-22T14:19:30;21.30;;;10.32;;
75930;SDS011;64609;47.052;15.462;2023-06-22T14:21:56;19.20;;;9.25;;